createdAt,value
2018-01-22T00:01:24.314Z,42.90
2018-01-22T00:06:27.785Z,47.27
2018-01-22T00:11:30.683Z,50.17
2018-01-22T00:16:33.482Z,47.80
2018-01-22T00:21:36.177Z,45.63
2018-01-22T00:26:39.119Z,50.37
2018-01-22T00:31:41.799Z,48.67
2018-01-22T00:36:45.179Z,50.27
2018-01-22T00:41:48.648Z,51.80
2018-01-22T00:46:51.934Z,55.93
2018-01-22T00:51:54.586Z,64.40
2018-01-22T00:56:57.351Z,65.17
2018-01-22T01:02:00.127Z,58.37
2018-01-22T01:07:03.197Z,58.47
2018-01-22T01:12:05.872Z,60.57
2018-01-22T01:17:09.211Z,60.93
2018-01-22T01:22:11.967Z,59.23
2018-01-22T01:27:15.472Z,64.70
2018-01-22T01:32:18.198Z,78.43
2018-01-22T01:37:21.714Z,69.23
2018-01-22T01:42:24.376Z,74.57
2018-01-22T01:47:28.564Z,63.33
2018-01-22T01:52:31.214Z,63.00
2018-01-22T01:57:35.154Z,57.00
2018-01-22T02:02:37.828Z,66.77
2018-01-22T02:07:41.039Z,58.43
2018-01-22T02:12:44.457Z,52.10
2018-01-22T02:17:47.283Z,63.83
2018-01-22T02:22:50.020Z,59.27
2018-01-22T02:27:53.607Z,53.23
2018-01-22T02:32:56.311Z,61.87
2018-01-22T02:37:59.040Z,60.73
2018-01-22T02:43:01.707Z,55.70
2018-01-22T02:48:04.498Z,55.27
2018-01-22T02:53:07.919Z,52.87
2018-01-22T02:58:11.186Z,51.67
2018-01-22T03:03:13.869Z,48.77
2018-01-22T03:08:16.879Z,47.10
2018-01-22T03:13:19.562Z,46.97
2018-01-22T03:18:22.576Z,47.07
2018-01-22T03:23:25.262Z,37.67
2018-01-22T03:28:28.586Z,35.37
2018-01-22T03:33:31.290Z,41.13
2018-01-22T03:38:33.977Z,42.13
2018-01-22T03:43:36.654Z,37.77
2018-01-22T03:48:40.248Z,37.10
2018-01-22T03:53:42.902Z,34.67
2018-01-22T03:58:45.914Z,36.00
2018-01-22T04:03:48.604Z,39.07
2018-01-22T04:08:51.817Z,31.90
2018-01-22T04:13:54.546Z,27.17
2018-01-22T04:18:57.462Z,34.20
2018-01-22T04:24:00.169Z,32.23
2018-01-22T04:29:03.226Z,27.73
2018-01-22T04:34:05.887Z,33.17
2018-01-22T04:39:08.711Z,31.43
2018-01-22T04:44:12.159Z,31.00
2018-01-22T04:49:15.310Z,34.27
2018-01-22T04:54:17.994Z,30.83
2018-01-22T04:59:20.678Z,33.53
2018-01-22T05:04:23.390Z,35.43
2018-01-22T05:09:26.621Z,33.90
2018-01-22T05:14:29.286Z,35.47
2018-01-22T05:19:32.290Z,29.80
2018-01-22T05:24:34.964Z,34.07
2018-01-22T05:29:38.873Z,36.13
2018-01-22T05:34:41.575Z,37.27
2018-01-22T05:39:44.879Z,40.70
2018-01-22T05:44:47.553Z,31.30
2018-01-22T05:49:51.177Z,36.47
2018-01-22T05:54:53.894Z,37.70
2018-01-22T05:59:58.668Z,37.07
2018-01-22T06:05:03.124Z,36.73
2018-01-22T06:10:10.674Z,39.90
2018-01-22T06:15:14.261Z,39.53
2018-01-22T06:20:18.951Z,36.93
2018-01-22T06:25:27.017Z,38.17
2018-01-22T06:30:31.813Z,32.23
2018-01-22T06:35:35.621Z,40.97
2018-01-22T06:40:40.725Z,39.53
2018-01-22T06:45:44.978Z,40.93
2018-01-22T06:50:51.990Z,36.93
2018-01-22T06:55:57.029Z,40.77
2018-01-22T07:01:02.669Z,42.53
2018-01-22T07:06:05.291Z,41.47
2018-01-22T07:11:08.010Z,40.30
2018-01-22T07:16:10.680Z,44.60
2018-01-22T07:21:13.392Z,47.83
2018-01-22T07:26:16.049Z,41.40
2018-01-22T07:31:18.787Z,45.17
2018-01-22T07:36:21.461Z,38.73
2018-01-22T07:41:24.630Z,40.30
2018-01-22T07:46:28.073Z,38.13
2018-01-22T07:51:30.971Z,36.77
2018-01-22T07:56:33.646Z,31.43
2018-01-22T08:01:37.326Z,36.43
2018-01-22T08:06:39.989Z,34.63
2018-01-22T08:11:43.851Z,34.40
2018-01-22T08:16:46.495Z,33.20
2018-01-22T08:21:50.190Z,32.77
2018-01-22T08:26:53.934Z,30.03
2018-01-22T08:37:06.773Z,31.63
2018-01-22T08:42:10.471Z,29.17
2018-01-22T08:47:13.175Z,32.87
2018-01-22T08:52:18.944Z,33.73
2018-01-22T08:57:21.597Z,30.63
2018-01-22T09:02:26.158Z,27.50
2018-01-22T09:07:30.362Z,28.13
2018-01-22T09:12:33.700Z,26.70
2018-01-22T09:17:37.196Z,26.03
2018-01-22T09:22:41.230Z,24.67
2018-01-22T09:27:46.546Z,23.60
2018-01-22T09:32:50.492Z,23.90
2018-01-22T09:37:53.186Z,22.70
2018-01-22T09:42:58.151Z,24.37
2018-01-22T09:48:03.195Z,22.53
2018-01-22T09:53:08.262Z,20.83
2018-01-22T09:58:11.014Z,21.73
2018-01-22T10:03:13.917Z,22.00
2018-01-22T10:08:18.286Z,21.77
2018-01-22T10:13:21.356Z,23.53
2018-01-22T10:18:25.436Z,22.13
2018-01-22T10:23:31.329Z,20.20
2018-01-22T10:28:37.036Z,21.77
2018-01-22T10:33:45.187Z,22.00
2018-01-22T10:38:54.299Z,24.87
2018-01-22T10:43:57.341Z,15.57
2018-01-22T10:49:02.231Z,17.53
2018-01-22T10:54:06.077Z,21.10
2018-01-22T10:59:09.455Z,26.77
2018-01-22T11:04:14.239Z,23.87
2018-01-22T11:09:17.107Z,20.27
2018-01-22T11:14:20.659Z,18.20
2018-01-22T11:19:23.338Z,15.93
2018-01-22T11:24:26.887Z,17.10
2018-01-22T11:29:30.345Z,16.17
2018-01-22T11:34:34.397Z,16.63
2018-01-22T11:39:37.815Z,18.40
2018-01-22T11:44:40.731Z,14.67
2018-01-22T11:49:43.383Z,19.90
2018-01-22T11:54:47.063Z,16.97
2018-01-22T11:59:49.710Z,17.23
2018-01-22T12:04:53.024Z,16.30
2018-01-22T12:09:56.738Z,18.37
2018-01-22T12:14:59.970Z,17.57
2018-01-22T12:20:03.387Z,18.40
2018-01-22T12:25:06.878Z,17.73
2018-01-22T12:30:10.502Z,17.87
2018-01-22T12:35:13.868Z,18.40
2018-01-22T12:40:16.511Z,16.00
2018-01-22T12:45:19.426Z,15.93
2018-01-22T12:50:22.081Z,15.50
2018-01-22T12:55:25.387Z,13.93
2018-01-22T13:00:28.071Z,17.87
2018-01-22T13:05:32.139Z,19.47
2018-01-22T13:10:34.777Z,19.20
2018-01-22T13:15:38.006Z,22.67
2018-01-22T13:20:40.687Z,16.60
2018-01-22T13:25:44.111Z,16.93
2018-01-22T13:30:46.788Z,18.43
2018-01-22T13:35:50.247Z,16.73
2018-01-22T13:40:59.415Z,15.30
2018-01-22T13:46:03.861Z,15.67
2018-01-22T13:51:06.528Z,17.63
2018-01-22T13:56:10.116Z,18.13
2018-01-22T14:01:12.806Z,15.57
2018-01-22T14:06:16.386Z,16.90
2018-01-22T14:11:19.767Z,15.80
2018-01-22T14:16:23.311Z,17.03
2018-01-22T14:21:26.771Z,20.67
2018-01-22T14:26:29.760Z,23.10
2018-01-22T14:31:33.184Z,24.30
2018-01-22T14:36:36.197Z,27.30
2018-01-22T14:41:38.989Z,22.20
2018-01-22T14:46:42.102Z,26.03
2018-01-22T14:51:44.775Z,32.73
2018-01-22T14:56:47.788Z,28.30
2018-01-22T15:01:51.224Z,27.53
2018-01-22T15:06:54.994Z,31.33
2018-01-22T15:11:57.730Z,29.07
2018-01-22T15:17:01.497Z,25.37
2018-01-22T15:22:04.175Z,28.20
2018-01-22T15:27:06.997Z,28.43
2018-01-22T15:32:09.677Z,26.57
2018-01-22T15:37:13.659Z,28.17
2018-01-22T15:42:16.311Z,47.17
2018-01-22T15:47:19.545Z,31.13
2018-01-22T15:52:22.642Z,26.93
2018-01-22T15:57:26.239Z,30.77
2018-01-22T16:02:29.881Z,27.10
2018-01-22T16:07:33.254Z,31.10
2018-01-22T16:12:35.951Z,31.87
2018-01-22T16:17:40.200Z,29.93
2018-01-22T16:22:42.910Z,29.67
2018-01-22T16:27:47.195Z,28.83
2018-01-22T16:32:49.900Z,28.50
2018-01-22T16:37:52.613Z,26.93
2018-01-22T16:42:55.373Z,28.33
2018-01-22T16:47:58.823Z,28.30
2018-01-22T16:53:01.575Z,27.53
2018-01-22T16:58:05.928Z,27.87
2018-01-22T17:03:08.566Z,23.57
2018-01-22T17:08:12.058Z,31.47
2018-01-22T17:13:14.851Z,30.80
2018-01-22T17:18:18.249Z,27.43
2018-01-22T17:23:21.789Z,24.77
2018-01-22T17:28:25.476Z,25.83
2018-01-22T17:33:28.370Z,25.47
2018-01-22T17:38:31.116Z,21.50
2018-01-22T17:43:33.764Z,23.23
2018-01-22T17:48:37.237Z,21.00
2018-01-22T17:53:39.897Z,21.63
2018-01-22T17:58:43.279Z,22.43
2018-01-22T18:03:45.950Z,20.33
2018-01-22T18:08:48.773Z,20.00
2018-01-22T18:13:51.672Z,20.53
2018-01-22T18:18:55.117Z,21.67
2018-01-22T18:23:58.080Z,21.40
2018-01-22T18:29:01.671Z,22.07
2018-01-22T18:34:04.507Z,27.20
2018-01-22T18:39:10.162Z,20.77
2018-01-22T18:44:16.726Z,21.93
2018-01-22T18:49:20.690Z,24.73
2018-01-22T18:54:24.454Z,26.20
2018-01-22T18:59:27.977Z,23.80
2018-01-22T19:04:33.265Z,27.57
2018-01-22T19:09:36.414Z,25.97
2018-01-22T19:14:39.504Z,28.10
2018-01-22T19:19:43.230Z,23.23
2018-01-22T19:24:46.639Z,21.40
2018-01-22T19:29:50.072Z,22.97
2018-01-22T19:34:53.453Z,27.50
2018-01-22T19:39:56.999Z,27.33
2018-01-22T19:45:00.662Z,26.03
2018-01-22T19:50:03.546Z,29.30
2018-01-22T19:55:06.343Z,35.90
2018-01-22T20:00:09.906Z,27.63
2018-01-22T20:05:12.610Z,35.10
2018-01-22T20:10:15.588Z,35.90
2018-01-22T20:15:18.491Z,37.77
2018-01-22T20:20:22.047Z,58.17
2018-01-22T20:25:24.698Z,43.53
2018-01-22T20:30:27.634Z,41.77
2018-01-22T20:35:30.571Z,38.67
2018-01-22T20:40:52.799Z,44.27
2018-01-22T20:45:55.673Z,48.37
2018-01-22T20:51:00.644Z,43.10
2018-01-22T20:56:03.421Z,47.13
2018-01-22T21:01:07.954Z,43.00
2018-01-22T21:06:11.588Z,48.03
2018-01-22T21:11:14.597Z,43.13
2018-01-22T21:16:17.379Z,46.10
2018-01-22T21:21:20.159Z,49.53
2018-01-22T21:26:22.828Z,48.37
2018-01-22T21:31:26.106Z,42.83
2018-01-22T21:36:28.891Z,47.00
2018-01-22T21:41:32.061Z,48.20
2018-01-22T21:46:34.722Z,46.83
2018-01-22T21:51:38.342Z,45.07
2018-01-22T21:56:41.981Z,44.77
2018-01-22T22:01:44.788Z,51.13
2018-01-22T22:06:47.462Z,51.37
2018-01-22T22:11:51.676Z,51.93
2018-01-22T22:16:54.433Z,55.63
2018-01-22T22:21:57.934Z,59.23
2018-01-22T22:27:00.845Z,54.93
2018-01-22T22:32:04.159Z,58.97
2018-01-22T22:37:06.859Z,54.47
2018-01-22T22:42:09.847Z,54.30
2018-01-22T22:47:13.258Z,55.40
2018-01-22T22:52:17.228Z,50.23
2018-01-22T22:57:19.904Z,56.37
2018-01-22T23:02:22.990Z,62.80
2018-01-22T23:07:25.659Z,55.97
2018-01-22T23:12:28.645Z,57.53
2018-01-22T23:17:31.251Z,61.87
2018-01-22T23:22:34.094Z,62.57
2018-01-22T23:27:37.759Z,59.43
2018-01-22T23:32:40.901Z,62.00
2018-01-22T23:37:43.535Z,72.60
2018-01-22T23:42:47.009Z,59.20
2018-01-22T23:47:49.740Z,65.10
2018-01-22T23:52:53.348Z,62.40
2018-01-22T23:57:56.816Z,55.50
